Messwerte New York City

Temperatur

Temperatur
°C
1575986400 9.00 9.00 14
1575990000 10.00 10.00 14
1575993600 11.00 11.00 14
1575997200 12.00 12.00 14
1576000800 13.00 13.00 13
1576004400 14.00 14.00 13
1576008000 15.00 15.00 13
1576011600 16.00 16.00
1576015200 17.00 17.00 13
1576018800 18.00 18.00 13
1576022400 19.00 19.00 12
1576026000 20.00 20.00 11
1576029600 21.00 21.00
1576033200 22.00 22.00 7
1576036800 23.00 23.00 6
1576040400 0.00 0.00 4
1576044000 1.00 1.00 4
1576047600 2.00 2.00 2
1576051200 3.00 3.00 2
1576054800 4.00 4.00 1
1576058400 5.00 5.00 1
1576062000 6.00 6.00 1
1576065600 7.00 7.00 1
1576069200 8.00 8.00 1

Aktuellste Messwerte

Wettercharakter
Wetter: immer wieder Schnee
Temperatur
0 °C
Feuchtigkeit
85 %
Wind
0 km/h, -
Luftdruck
1026 hPa
Messzeit: 11. Dezember 2019, 9.00Datenquelle: METAR

Weitere Messstationen in der Nähe

Messstation Temperatur Entfernung
New York City 1 °C 6 km
Teterboro NJ - 11 km
Newark 0 °C 19 km
New York City 1 °C 22 km
Caldwell 0 °C 28 km
Morristown NJ 0 °C 37 km
Farmingdale 0 °C 47 km

Wind

Windrichtung Böen Mittelwind
° km/h km/h
1575986400 9.00 8.00 - 9.00 240° 30 5
1575990000 10.00 9.00 - 10.00 260° 10
1575993600 11.00 10.00 - 11.00 250° 15
1575997200 12.00 11.00 - 12.00 240° 30 10
1576000800 13.00 12.00 - 13.00 240° 15
1576004400 14.00 13.00 - 14.00 220° 25 10
1576008000 15.00 14.00 - 15.00 220° 30 15
1576011600 16.00 15.00 - 16.00
1576015200 17.00 16.00 - 17.00 250° 25 15
1576018800 18.00 17.00 - 18.00 270° 5
1576022400 19.00 18.00 - 19.00 270° 30 20
1576026000 20.00 19.00 - 20.00 270° 15
1576029600 21.00 20.00 - 21.00
1576033200 22.00 21.00 - 22.00 270° 45 20
1576036800 23.00 22.00 - 23.00 280° 30 20
1576040400 0.00 23.00 - 0.00 290° 30 15
1576044000 1.00 0.00 - 1.00 300° 5
1576047600 2.00 1.00 - 2.00 300° 15
1576051200 3.00 2.00 - 3.00 300° 10
1576054800 4.00 3.00 - 4.00 0
1576058400 5.00 4.00 - 5.00 5
1576062000 6.00 5.00 - 6.00 330° 5
1576065600 7.00 6.00 - 7.00 350° 10
1576069200 8.00 7.00 - 8.00 20° 10

Ihre Wetterstation

Fehlt Ihre Wetterstation auf unserem Portal?

Schreiben Sie an network@meteonews.ch

Klima

Wann ist es am wärmsten? Wann regnet es am wenigsten? Unsere Klimadaten geben Auskunft.